TimeMDT,TemperatureF,Dew PointF,Humidity,Sea Level PressureIn,VisibilityMPH,Wind Direction,Wind SpeedMPH,Gust SpeedMPH,PrecipitationIn,Events,Conditions,WindDirDegrees,DateUTC
12:32 AM,24.8,21.2,86,29.82,3.0,NE,4.6,-,0.00,Snow,Light Snow,40,2013-03-22 06:32:00
12:52 AM,24.1,21.9,91,29.90,4.0,North,3.5,-,0.00,Snow,Light Snow,10,2013-03-22 06:52:00
1:00 AM,24.8,21.2,86,29.82,4.0,North,4.6,-,0.00,Snow,Light Snow,360,2013-03-22 07:00:00
1:03 AM,24.8,21.2,86,29.82,4.0,North,3.5,-,0.00,Snow,Light Snow,360,2013-03-22 07:03:00
1:29 AM,24.8,21.2,86,29.82,4.0,North,3.5,-,0.00,Snow,Light Snow,350,2013-03-22 07:29:00
1:52 AM,23.0,21.9,96,29.90,5.0,Calm,Calm,-,0.00,,Overcast,0,2013-03-22 07:52:00
2:27 AM,21.2,19.4,93,29.82,5.0,Calm,Calm,-,N/A,,Scattered Clouds,0,2013-03-22 08:27:00
2:52 AM,21.0,19.0,92,29.90,2.5,Calm,Calm,-,N/A,,Clear,0,2013-03-22 08:52:00
2:58 AM,19.4,19.4,100,29.82,0.8,Calm,Calm,-,N/A,,Clear,0,2013-03-22 08:58:00
3:02 AM,17.6,17.6,100,29.82,0.2,Calm,Calm,-,N/A,Fog,Light Freezing Fog,0,2013-03-22 09:02:00
3:38 AM,10.4,10.4,100,29.81,0.2,Calm,Calm,-,N/A,Fog,Light Freezing Fog,0,2013-03-22 09:38:00
3:52 AM,14.0,12.0,92,29.91,0.2,Calm,Calm,-,N/A,Fog,Light Freezing Fog,0,2013-03-22 09:52:00
4:52 AM,15.1,12.0,88,29.91,0.2,Calm,Calm,-,N/A,Fog,Light Freezing Fog,0,2013-03-22 10:52:00
5:52 AM,19.9,15.1,81,29.91,0.2,NNE,3.5,-,N/A,,Haze,30,2013-03-22 11:52:00
6:43 AM,12.2,8.6,85,29.80,0.5,NNW,3.5,-,N/A,Fog,Light Freezing Fog,340,2013-03-22 12:43:00
6:49 AM,12.2,8.6,85,29.80,1.0,Calm,Calm,-,N/A,Fog,Light Freezing Fog,0,2013-03-22 12:49:00
6:52 AM,12.0,8.1,84,29.94,2.5,Calm,Calm,-,N/A,Fog,Light Freezing Fog,0,2013-03-22 12:52:00
6:59 AM,12.2,8.6,85,29.81,0.2,Calm,Calm,-,N/A,Fog,Light Freezing Fog,0,2013-03-22 12:59:00
7:41 AM,17.6,14.0,86,29.80,0.5,East,3.5,-,N/A,Fog,Light Freezing Fog,90,2013-03-22 13:41:00
7:52 AM,19.0,15.1,85,29.93,1.0,ENE,4.6,-,N/A,Fog,Light Freezing Fog,70,2013-03-22 13:52:00
8:00 AM,19.4,15.8,86,29.80,0.5,East,3.5,-,N/A,Fog,Light Freezing Fog,90,2013-03-22 14:00:00
8:27 AM,21.2,17.6,86,29.81,3.0,Calm,Calm,-,N/A,Fog,Light Freezing Fog,0,2013-03-22 14:27:00
8:40 AM,23.0,19.4,86,29.81,5.0,Calm,Calm,-,N/A,,Scattered Clouds,0,2013-03-22 14:40:00
8:52 AM,21.9,17.1,82,29.93,6.0,East,3.5,-,N/A,,Haze,90,2013-03-22 14:52:00
9:10 AM,21.2,17.6,86,29.81,0.2,SE,4.6,-,N/A,Fog,Light Freezing Fog,130,2013-03-22 15:10:00
9:21 AM,21.2,17.6,86,29.82,0.2,SE,5.8,-,N/A,Fog,Light Freezing Fog,130,2013-03-22 15:21:00
9:52 AM,23.0,19.0,85,29.94,0.2,ESE,3.5,-,N/A,Fog,Light Freezing Fog,120,2013-03-22 15:52:00
10:28 AM,24.8,19.4,80,29.82,1.0,Calm,Calm,-,N/A,,Mist,0,2013-03-22 16:28:00
10:36 AM,26.6,21.2,80,29.82,4.0,NE,3.5,-,N/A,,Haze,50,2013-03-22 16:36:00
10:52 AM,27.0,23.0,85,29.93,7.0,ESE,3.5,-,N/A,,Clear,110,2013-03-22 16:52:00
11:08 AM,28.4,24.8,86,29.82,2.0,SSE,3.5,-,N/A,,Partly Cloudy,160,2013-03-22 17:08:00
11:16 AM,28.4,24.8,86,29.83,1.0,South,3.5,-,N/A,,Mist,190,2013-03-22 17:16:00
11:39 AM,30.2,26.6,86,29.83,3.0,ESE,3.5,-,N/A,,Scattered Clouds,110,2013-03-22 17:39:00
11:52 AM,32.0,28.0,85,29.93,4.0,SE,5.8,-,N/A,,Mostly Cloudy,130,2013-03-22 17:52:00
12:39 PM,33.8,28.4,81,29.83,10.0,East,10.4,-,N/A,,Partly Cloudy,90,2013-03-22 18:39:00
12:52 PM,34.0,28.0,79,29.93,10.0,ENE,8.1,-,N/A,,Scattered Clouds,70,2013-03-22 18:52:00
1:52 PM,36.0,28.0,73,29.92,10.0,Variable,6.9,-,N/A,,Overcast,0,2013-03-22 19:52:00
2:52 PM,36.0,26.1,67,29.92,10.0,Variable,6.9,-,N/A,,Overcast,0,2013-03-22 20:52:00
3:43 PM,32.0,26.6,80,29.83,2.0,NNW,6.9,-,0.00,Snow,Light Snow,330,2013-03-22 21:43:00
3:52 PM,32.0,28.0,85,29.96,1.8,NNW,6.9,-,0.00,Snow,Light Snow,330,2013-03-22 21:52:00
4:00 PM,30.2,28.4,93,29.83,0.8,NW,6.9,-,0.00,Snow,Light Snow,320,2013-03-22 22:00:00
4:09 PM,30.2,28.4,93,29.84,0.5,NNW,5.8,-,0.01,Fog-Snow,Snow,330,2013-03-22 22:09:00
4:16 PM,30.2,28.4,93,29.83,0.2,North,6.9,-,0.02,Fog-Snow,Heavy Snow,350,2013-03-22 22:16:00
4:20 PM,30.2,28.4,93,29.83,0.5,North,5.8,-,0.03,Fog-Snow,Snow,350,2013-03-22 22:20:00
4:44 PM,30.2,28.4,93,29.84,0.8,North,8.1,-,0.05,Snow,Light Snow,350,2013-03-22 22:44:00
4:52 PM,30.0,28.0,92,29.98,0.5,NNW,6.9,-,0.06,Fog-Snow,Snow,330,2013-03-22 22:52:00
5:09 PM,30.2,28.4,93,29.85,0.2,NNW,16.1,19.6,0.03,Fog-Snow,Heavy Snow,330,2013-03-22 23:09:00
5:30 PM,30.2,26.6,86,29.85,0.5,NNW,20.7,29.9,0.05,Fog-Snow,Snow,330,2013-03-22 23:30:00
5:48 PM,30.2,28.4,93,29.86,0.2,NNW,24.2,-,0.05,Fog-Snow,Heavy Snow,330,2013-03-22 23:48:00
5:52 PM,30.0,28.0,92,29.98,0.2,NNW,23.0,31.1,0.06,Fog-Snow,Heavy Snow,340,2013-03-22 23:52:00
6:35 PM,28.4,26.6,93,29.89,0.2,North,28.8,35.7,0.04,Fog,Light Freezing Fog,350,2013-03-23 00:35:00
6:52 PM,28.0,26.1,92,30.05,0.2,North,24.2,-,0.07,Fog,Light Freezing Fog,350,2013-03-23 00:52:00
7:07 PM,28.4,26.6,93,29.91,0.2,North,23.0,-,0.04,Fog,Light Freezing Fog,350,2013-03-23 01:07:00
7:14 PM,28.4,26.6,93,29.91,0.5,North,21.9,-,0.05,Fog,Light Freezing Fog,360,2013-03-23 01:14:00
7:25 PM,28.4,26.6,93,29.92,1.0,North,19.6,-,0.05,,Mist,360,2013-03-23 01:25:00
7:35 PM,28.4,26.6,93,29.93,0.8,North,19.6,-,0.05,,Mist,360,2013-03-23 01:35:00
7:42 PM,28.4,26.6,93,29.93,0.8,North,19.6,-,0.06,,Mist,360,2013-03-23 01:42:00
7:52 PM,28.0,26.1,92,30.06,0.8,North,20.7,25.3,0.07,,Overcast,360,2013-03-23 01:52:00
7:56 PM,28.4,26.6,93,29.93,1.0,North,23.0,-,N/A,,Overcast,360,2013-03-23 01:56:00
8:14 PM,26.6,24.8,93,29.95,1.8,North,16.1,-,N/A,,Overcast,360,2013-03-23 02:14:00
8:25 PM,26.6,24.8,93,29.96,2.0,North,17.3,-,0.01,,Overcast,360,2013-03-23 02:25:00
8:34 PM,26.6,24.8,93,29.96,1.8,North,25.3,28.8,0.01,,Overcast,350,2013-03-23 02:34:00
8:39 PM,26.6,24.8,93,29.96,2.0,North,24.2,-,0.01,,Overcast,360,2013-03-23 02:39:00
8:46 PM,26.6,24.8,93,29.97,3.0,North,21.9,-,0.01,,Overcast,360,2013-03-23 02:46:00
8:52 PM,26.1,23.0,88,30.10,3.0,North,23.0,-,0.01,,Overcast,350,2013-03-23 02:52:00
9:28 PM,24.8,21.2,86,29.99,3.0,North,24.2,-,N/A,,Overcast,350,2013-03-23 03:28:00
9:52 PM,23.0,19.9,88,30.13,4.0,North,21.9,-,N/A,,Overcast,350,2013-03-23 03:52:00
9:56 PM,23.0,19.4,86,30.00,4.0,North,20.7,-,N/A,,Overcast,350,2013-03-23 03:56:00
10:10 PM,23.0,19.4,86,30.00,4.0,North,21.9,-,N/A,,Overcast,350,2013-03-23 04:10:00
10:48 PM,21.2,19.4,93,30.02,4.0,NNW,24.2,-,N/A,,Overcast,340,2013-03-23 04:48:00
10:52 PM,21.0,17.1,85,30.15,4.0,NNW,24.2,-,N/A,,Overcast,340,2013-03-23 04:52:00
11:01 PM,21.2,17.6,86,30.02,5.0,North,24.2,-,N/A,,Overcast,350,2013-03-23 05:01:00
11:52 PM,19.9,17.1,89,30.17,10.0,North,17.3,-,N/A,,Overcast,350,2013-03-23 05:52:00